sensor_id;sensor_type;location;lat;lon;timestamp;P1;durP1;ratioP1;P2;durP2;ratioP2
56911;SDS011;42800;53.928;27.662;2023-01-16T00:02:23;17.63;;;7.65;;
56911;SDS011;42800;53.928;27.662;2023-01-16T00:04:49;17.05;;;8.90;;
56911;SDS011;42800;53.928;27.662;2023-01-16T00:07:15;12.88;;;6.75;;
56911;SDS011;42800;53.928;27.662;2023-01-16T00:09:41;14.27;;;8.43;;
56911;SDS011;42800;53.928;27.662;2023-01-16T00:12:07;13.32;;;6.80;;
56911;SDS011;42800;53.928;27.662;2023-01-16T00:14:34;12.82;;;6.82;;
56911;SDS011;42800;53.928;27.662;2023-01-16T00:17:00;18.40;;;9.15;;
56911;SDS011;42800;53.928;27.662;2023-01-16T00:19:27;16.95;;;9.43;;
56911;SDS011;42800;53.928;27.662;2023-01-16T00:21:53;11.20;;;6.43;;
56911;SDS011;42800;53.928;27.662;2023-01-16T00:24:19;15.50;;;8.32;;
56911;SDS011;42800;53.928;27.662;2023-01-16T00:26:45;17.67;;;8.48;;
56911;SDS011;42800;53.928;27.662;2023-01-16T00:29:15;14.82;;;7.45;;
56911;SDS011;42800;53.928;27.662;2023-01-16T00:31:42;15.88;;;7.15;;
56911;SDS011;42800;53.928;27.662;2023-01-16T00:34:08;15.70;;;7.72;;
56911;SDS011;42800;53.928;27.662;2023-01-16T00:36:34;14.13;;;7.43;;
56911;SDS011;42800;53.928;27.662;2023-01-16T00:39:02;13.65;;;8.07;;
56911;SDS011;42800;53.928;27.662;2023-01-16T00:41:28;16.65;;;8.05;;
56911;SDS011;42800;53.928;27.662;2023-01-16T00:43:54;16.42;;;7.82;;
56911;SDS011;42800;53.928;27.662;2023-01-16T00:46:24;11.35;;;6.70;;
56911;SDS011;42800;53.928;27.662;2023-01-16T00:48:51;15.40;;;7.75;;
56911;SDS011;42800;53.928;27.662;2023-01-16T00:51:17;14.25;;;7.35;;
56911;SDS011;42800;53.928;27.662;2023-01-16T00:53:43;15.88;;;8.90;;
56911;SDS011;42800;53.928;27.662;2023-01-16T00:56:09;12.52;;;7.18;;
56911;SDS011;42800;53.928;27.662;2023-01-16T00:58:35;16.63;;;9.45;;
56911;SDS011;42800;53.928;27.662;2023-01-16T01:01:02;7.93;;;4.63;;
56911;SDS011;42800;53.928;27.662;2023-01-16T01:03:28;12.90;;;6.63;;
56911;SDS011;42800;53.928;27.662;2023-01-16T01:05:55;15.65;;;7.93;;
56911;SDS011;42800;53.928;27.662;2023-01-16T01:08:21;12.27;;;7.07;;
56911;SDS011;42800;53.928;27.662;2023-01-16T01:10:48;10.40;;;6.50;;
56911;SDS011;42800;53.928;27.662;2023-01-16T01:13:14;15.18;;;7.50;;
56911;SDS011;42800;53.928;27.662;2023-01-16T01:15:40;10.77;;;6.25;;
56911;SDS011;42800;53.928;27.662;2023-01-16T01:18:07;10.82;;;6.07;;
56911;SDS011;42800;53.928;27.662;2023-01-16T01:20:33;15.30;;;7.63;;
56911;SDS011;42800;53.928;27.662;2023-01-16T01:23:00;15.07;;;8.02;;
56911;SDS011;42800;53.928;27.662;2023-01-16T01:25:26;13.38;;;6.60;;
56911;SDS011;42800;53.928;27.662;2023-01-16T01:27:52;8.15;;;4.80;;
56911;SDS011;42800;53.928;27.662;2023-01-16T01:30:19;13.27;;;7.15;;
56911;SDS011;42800;53.928;27.662;2023-01-16T01:32:45;9.95;;;4.70;;
56911;SDS011;42800;53.928;27.662;2023-01-16T01:35:12;12.90;;;7.13;;
56911;SDS011;42800;53.928;27.662;2023-01-16T01:37:38;12.27;;;7.47;;
56911;SDS011;42800;53.928;27.662;2023-01-16T01:40:06;12.60;;;7.30;;
56911;SDS011;42800;53.928;27.662;2023-01-16T01:42:36;13.40;;;6.40;;
56911;SDS011;42800;53.928;27.662;2023-01-16T01:45:13;7.75;;;4.38;;
56911;SDS011;42800;53.928;27.662;2023-01-16T01:47:43;13.77;;;7.20;;
56911;SDS011;42800;53.928;27.662;2023-01-16T01:50:15;10.30;;;6.10;;
56911;SDS011;42800;53.928;27.662;2023-01-16T01:52:46;11.02;;;6.45;;
56911;SDS011;42800;53.928;27.662;2023-01-16T01:55:13;13.18;;;6.78;;
56911;SDS011;42800;53.928;27.662;2023-01-16T01:57:41;12.85;;;6.93;;
56911;SDS011;42800;53.928;27.662;2023-01-16T02:00:11;8.88;;;5.78;;
56911;SDS011;42800;53.928;27.662;2023-01-16T02:02:42;9.60;;;4.93;;
56911;SDS011;42800;53.928;27.662;2023-01-16T02:05:12;12.15;;;6.57;;
56911;SDS011;42800;53.928;27.662;2023-01-16T02:07:45;12.52;;;5.57;;
56911;SDS011;42800;53.928;27.662;2023-01-16T02:10:12;11.20;;;5.63;;
56911;SDS011;42800;53.928;27.662;2023-01-16T02:12:44;13.13;;;6.53;;
56911;SDS011;42800;53.928;27.662;2023-01-16T02:15:10;11.15;;;5.90;;
56911;SDS011;42800;53.928;27.662;2023-01-16T02:17:38;10.38;;;5.70;;
56911;SDS011;42800;53.928;27.662;2023-01-16T02:20:27;10.90;;;5.93;;
56911;SDS011;42800;53.928;27.662;2023-01-16T02:25:57;11.10;;;5.68;;
56911;SDS011;42800;53.928;27.662;2023-01-16T02:31:56;11.75;;;5.80;;
56911;SDS011;42800;53.928;27.662;2023-01-16T02:34:47;10.05;;;5.43;;
56911;SDS011;42800;53.928;27.662;2023-01-16T02:37:25;13.20;;;5.70;;
56911;SDS011;42800;53.928;27.662;2023-01-16T02:40:10;11.23;;;5.82;;
56911;SDS011;42800;53.928;27.662;2023-01-16T02:42:48;11.50;;;5.20;;
56911;SDS011;42800;53.928;27.662;2023-01-16T02:45:24;9.10;;;5.13;;
56911;SDS011;42800;53.928;27.662;2023-01-16T02:47:58;8.30;;;4.50;;
56911;SDS011;42800;53.928;27.662;2023-01-16T02:50:30;7.28;;;4.50;;
56911;SDS011;42800;53.928;27.662;2023-01-16T02:53:06;8.23;;;4.45;;
56911;SDS011;42800;53.928;27.662;2023-01-16T02:55:40;9.27;;;5.05;;
56911;SDS011;42800;53.928;27.662;2023-01-16T02:58:11;8.93;;;5.28;;
56911;SDS011;42800;53.928;27.662;2023-01-16T03:00:42;10.40;;;5.68;;
56911;SDS011;42800;53.928;27.662;2023-01-16T03:03:19;8.35;;;4.75;;
56911;SDS011;42800;53.928;27.662;2023-01-16T03:06:03;8.32;;;3.88;;
56911;SDS011;42800;53.928;27.662;2023-01-16T03:08:40;8.10;;;4.95;;
56911;SDS011;42800;53.928;27.662;2023-01-16T03:11:14;10.57;;;4.90;;
56911;SDS011;42800;53.928;27.662;2023-01-16T03:16:30;7.35;;;4.35;;
56911;SDS011;42800;53.928;27.662;2023-01-16T03:19:14;7.72;;;4.45;;
56911;SDS011;42800;53.928;27.662;2023-01-16T03:21:53;6.78;;;3.83;;
56911;SDS011;42800;53.928;27.662;2023-01-16T03:24:34;6.47;;;4.15;;
56911;SDS011;42800;53.928;27.662;2023-01-16T03:27:10;6.95;;;3.58;;
56911;SDS011;42800;53.928;27.662;2023-01-16T03:29:50;8.60;;;4.13;;
56911;SDS011;42800;53.928;27.662;2023-01-16T03:32:22;6.15;;;3.55;;
56911;SDS011;42800;53.928;27.662;2023-01-16T03:34:57;6.90;;;4.03;;
56911;SDS011;42800;53.928;27.662;2023-01-16T03:37:30;6.75;;;3.95;;
56911;SDS011;42800;53.928;27.662;2023-01-16T03:40:02;7.03;;;3.38;;
56911;SDS011;42800;53.928;27.662;2023-01-16T03:42:32;6.75;;;4.30;;
56911;SDS011;42800;53.928;27.662;2023-01-16T03:45:03;6.88;;;3.40;;
56911;SDS011;42800;53.928;27.662;2023-01-16T03:47:36;9.60;;;3.65;;
56911;SDS011;42800;53.928;27.662;2023-01-16T03:50:08;5.70;;;3.58;;
56911;SDS011;42800;53.928;27.662;2023-01-16T03:52:38;5.18;;;3.25;;
56911;SDS011;42800;53.928;27.662;2023-01-16T03:55:12;5.28;;;3.50;;
56911;SDS011;42800;53.928;27.662;2023-01-16T03:57:44;6.28;;;3.47;;
56911;SDS011;42800;53.928;27.662;2023-01-16T04:00:14;5.18;;;4.00;;
56911;SDS011;42800;53.928;27.662;2023-01-16T04:02:43;9.75;;;3.63;;
56911;SDS011;42800;53.928;27.662;2023-01-16T04:05:14;5.10;;;2.92;;
56911;SDS011;42800;53.928;27.662;2023-01-16T04:07:43;4.03;;;3.15;;
56911;SDS011;42800;53.928;27.662;2023-01-16T04:10:14;5.40;;;3.17;;
56911;SDS011;42800;53.928;27.662;2023-01-16T04:12:44;3.80;;;2.78;;
56911;SDS011;42800;53.928;27.662;2023-01-16T04:15:13;4.78;;;2.70;;
56911;SDS011;42800;53.928;27.662;2023-01-16T04:17:41;3.25;;;2.35;;
56911;SDS011;42800;53.928;27.662;2023-01-16T04:20:09;4.82;;;2.60;;
56911;SDS011;42800;53.928;27.662;2023-01-16T04:22:36;3.67;;;2.42;;
56911;SDS011;42800;53.928;27.662;2023-01-16T04:25:03;3.25;;;2.30;;
56911;SDS011;42800;53.928;27.662;2023-01-16T04:27:33;5.47;;;2.67;;
56911;SDS011;42800;53.928;27.662;2023-01-16T04:30:00;4.63;;;3.00;;
56911;SDS011;42800;53.928;27.662;2023-01-16T04:32:27;4.38;;;2.78;;
56911;SDS011;42800;53.928;27.662;2023-01-16T04:34:53;3.40;;;2.50;;
56911;SDS011;42800;53.928;27.662;2023-01-16T04:37:19;4.78;;;2.92;;
56911;SDS011;42800;53.928;27.662;2023-01-16T04:39:46;3.15;;;2.38;;
56911;SDS011;42800;53.928;27.662;2023-01-16T04:42:14;2.72;;;1.92;;
56911;SDS011;42800;53.928;27.662;2023-01-16T04:44:41;4.40;;;2.40;;
56911;SDS011;42800;53.928;27.662;2023-01-16T04:47:07;2.95;;;2.28;;
56911;SDS011;42800;53.928;27.662;2023-01-16T04:49:34;4.60;;;2.90;;
56911;SDS011;42800;53.928;27.662;2023-01-16T04:52:00;3.38;;;2.63;;
56911;SDS011;42800;53.928;27.662;2023-01-16T04:54:26;6.68;;;2.78;;
56911;SDS011;42800;53.928;27.662;2023-01-16T04:56:53;4.57;;;2.83;;
56911;SDS011;42800;53.928;27.662;2023-01-16T04:59:19;3.22;;;2.45;;
56911;SDS011;42800;53.928;27.662;2023-01-16T05:01:46;3.90;;;2.60;;
56911;SDS011;42800;53.928;27.662;2023-01-16T05:04:12;3.80;;;2.67;;
56911;SDS011;42800;53.928;27.662;2023-01-16T05:06:40;7.88;;;3.20;;
56911;SDS011;42800;53.928;27.662;2023-01-16T05:09:06;3.38;;;2.65;;
56911;SDS011;42800;53.928;27.662;2023-01-16T05:11:33;4.05;;;2.83;;
56911;SDS011;42800;53.928;27.662;2023-01-16T05:14:01;5.82;;;3.38;;
56911;SDS011;42800;53.928;27.662;2023-01-16T05:16:27;4.47;;;2.72;;
56911;SDS011;42800;53.928;27.662;2023-01-16T05:18:54;8.43;;;3.88;;
56911;SDS011;42800;53.928;27.662;2023-01-16T05:21:20;5.50;;;3.63;;
56911;SDS011;42800;53.928;27.662;2023-01-16T05:23:46;8.55;;;3.97;;
56911;SDS011;42800;53.928;27.662;2023-01-16T05:26:12;4.57;;;3.20;;
56911;SDS011;42800;53.928;27.662;2023-01-16T05:28:38;4.03;;;3.08;;
56911;SDS011;42800;53.928;27.662;2023-01-16T05:31:05;6.60;;;2.95;;
56911;SDS011;42800;53.928;27.662;2023-01-16T05:33:32;6.30;;;3.60;;
56911;SDS011;42800;53.928;27.662;2023-01-16T05:35:58;5.53;;;2.70;;
56911;SDS011;42800;53.928;27.662;2023-01-16T05:38:24;6.35;;;3.58;;
56911;SDS011;42800;53.928;27.662;2023-01-16T05:40:50;6.60;;;3.03;;
56911;SDS011;42800;53.928;27.662;2023-01-16T05:43:16;5.28;;;3.40;;
56911;SDS011;42800;53.928;27.662;2023-01-16T05:45:43;4.82;;;2.88;;
56911;SDS011;42800;53.928;27.662;2023-01-16T05:48:10;10.30;;;3.50;;
56911;SDS011;42800;53.928;27.662;2023-01-16T05:50:36;7.25;;;4.40;;
56911;SDS011;42800;53.928;27.662;2023-01-16T05:53:02;8.00;;;3.85;;
56911;SDS011;42800;53.928;27.662;2023-01-16T05:55:29;21.40;;;5.22;;
56911;SDS011;42800;53.928;27.662;2023-01-16T05:57:56;8.30;;;4.70;;
56911;SDS011;42800;53.928;27.662;2023-01-16T06:00:22;10.07;;;5.75;;
56911;SDS011;42800;53.928;27.662;2023-01-16T06:02:48;13.57;;;5.60;;
56911;SDS011;42800;53.928;27.662;2023-01-16T06:05:15;15.93;;;7.93;;
56911;SDS011;42800;53.928;27.662;2023-01-16T06:07:42;15.43;;;10.23;;
56911;SDS011;42800;53.928;27.662;2023-01-16T06:10:08;19.30;;;8.57;;
56911;SDS011;42800;53.928;27.662;2023-01-16T06:12:35;13.73;;;8.93;;
56911;SDS011;42800;53.928;27.662;2023-01-16T06:15:02;12.15;;;8.05;;
56911;SDS011;42800;53.928;27.662;2023-01-16T06:17:29;9.90;;;6.03;;
56911;SDS011;42800;53.928;27.662;2023-01-16T06:19:55;9.77;;;6.75;;
56911;SDS011;42800;53.928;27.662;2023-01-16T06:22:22;8.65;;;5.25;;
56911;SDS011;42800;53.928;27.662;2023-01-16T06:24:50;9.40;;;5.20;;
56911;SDS011;42800;53.928;27.662;2023-01-16T06:27:17;11.55;;;7.00;;
56911;SDS011;42800;53.928;27.662;2023-01-16T06:29:43;10.52;;;5.25;;
56911;SDS011;42800;53.928;27.662;2023-01-16T06:32:09;8.45;;;5.13;;
56911;SDS011;42800;53.928;27.662;2023-01-16T06:34:36;8.48;;;5.07;;
56911;SDS011;42800;53.928;27.662;2023-01-16T06:37:02;8.18;;;4.32;;
56911;SDS011;42800;53.928;27.662;2023-01-16T06:39:29;11.82;;;6.20;;
56911;SDS011;42800;53.928;27.662;2023-01-16T06:41:55;9.38;;;6.28;;
56911;SDS011;42800;53.928;27.662;2023-01-16T06:44:21;10.90;;;6.13;;
56911;SDS011;42800;53.928;27.662;2023-01-16T06:46:47;9.00;;;5.85;;
56911;SDS011;42800;53.928;27.662;2023-01-16T06:49:13;8.43;;;5.38;;
56911;SDS011;42800;53.928;27.662;2023-01-16T06:51:40;9.93;;;5.85;;
56911;SDS011;42800;53.928;27.662;2023-01-16T06:54:08;12.18;;;6.50;;
56911;SDS011;42800;53.928;27.662;2023-01-16T06:56:35;9.02;;;5.93;;
56911;SDS011;42800;53.928;27.662;2023-01-16T06:59:01;9.77;;;6.07;;
56911;SDS011;42800;53.928;27.662;2023-01-16T07:01:28;11.52;;;6.85;;
56911;SDS011;42800;53.928;27.662;2023-01-16T07:03:54;11.20;;;5.82;;
56911;SDS011;42800;53.928;27.662;2023-01-16T07:06:20;8.80;;;6.47;;
56911;SDS011;42800;53.928;27.662;2023-01-16T07:08:46;13.90;;;7.45;;
56911;SDS011;42800;53.928;27.662;2023-01-16T07:11:15;10.13;;;5.65;;
56911;SDS011;42800;53.928;27.662;2023-01-16T07:13:42;13.68;;;7.03;;
56911;SDS011;42800;53.928;27.662;2023-01-16T07:16:09;11.35;;;6.57;;
56911;SDS011;42800;53.928;27.662;2023-01-16T07:18:54;11.18;;;6.32;;
56911;SDS011;42800;53.928;27.662;2023-01-16T07:21:39;12.35;;;6.75;;
56911;SDS011;42800;53.928;27.662;2023-01-16T07:24:25;15.43;;;6.28;;
56911;SDS011;42800;53.928;27.662;2023-01-16T07:26:55;10.45;;;6.57;;
56911;SDS011;42800;53.928;27.662;2023-01-16T07:29:24;12.93;;;7.15;;
56911;SDS011;42800;53.928;27.662;2023-01-16T07:31:51;7.30;;;4.70;;
56911;SDS011;42800;53.928;27.662;2023-01-16T07:34:18;7.90;;;4.95;;
56911;SDS011;42800;53.928;27.662;2023-01-16T07:36:44;10.25;;;6.25;;
56911;SDS011;42800;53.928;27.662;2023-01-16T07:39:11;16.95;;;6.35;;
56911;SDS011;42800;53.928;27.662;2023-01-16T07:41:37;25.45;;;15.15;;
56911;SDS011;42800;53.928;27.662;2023-01-16T07:44:03;12.13;;;7.50;;
56911;SDS011;42800;53.928;27.662;2023-01-16T07:46:32;11.45;;;7.50;;
56911;SDS011;42800;53.928;27.662;2023-01-16T07:48:58;11.18;;;6.40;;
56911;SDS011;42800;53.928;27.662;2023-01-16T07:51:25;10.48;;;7.20;;
56911;SDS011;42800;53.928;27.662;2023-01-16T07:53:51;11.40;;;6.88;;
56911;SDS011;42800;53.928;27.662;2023-01-16T07:56:17;15.57;;;8.13;;
56911;SDS011;42800;53.928;27.662;2023-01-16T07:58:44;10.63;;;6.68;;
56911;SDS011;42800;53.928;27.662;2023-01-16T08:01:10;14.25;;;6.85;;
56911;SDS011;42800;53.928;27.662;2023-01-16T08:03:37;11.95;;;7.18;;
56911;SDS011;42800;53.928;27.662;2023-01-16T08:06:04;10.25;;;7.00;;
56911;SDS011;42800;53.928;27.662;2023-01-16T08:08:30;13.10;;;7.78;;
56911;SDS011;42800;53.928;27.662;2023-01-16T08:10:58;13.43;;;7.30;;
56911;SDS011;42800;53.928;27.662;2023-01-16T08:13:45;12.60;;;7.93;;
56911;SDS011;42800;53.928;27.662;2023-01-16T08:16:12;14.35;;;7.85;;
56911;SDS011;42800;53.928;27.662;2023-01-16T08:18:38;18.50;;;9.52;;
56911;SDS011;42800;53.928;27.662;2023-01-16T08:21:05;13.50;;;7.60;;
56911;SDS011;42800;53.928;27.662;2023-01-16T08:23:31;9.82;;;5.47;;
56911;SDS011;42800;53.928;27.662;2023-01-16T08:25:57;10.25;;;6.47;;
56911;SDS011;42800;53.928;27.662;2023-01-16T08:28:25;10.40;;;5.47;;
56911;SDS011;42800;53.928;27.662;2023-01-16T08:30:51;13.48;;;6.05;;
56911;SDS011;42800;53.928;27.662;2023-01-16T08:33:18;15.68;;;8.18;;
56911;SDS011;42800;53.928;27.662;2023-01-16T08:35:45;11.63;;;6.55;;
56911;SDS011;42800;53.928;27.662;2023-01-16T08:38:11;10.43;;;6.18;;
56911;SDS011;42800;53.928;27.662;2023-01-16T08:40:37;12.18;;;7.80;;
56911;SDS011;42800;53.928;27.662;2023-01-16T08:43:03;12.52;;;7.97;;
56911;SDS011;42800;53.928;27.662;2023-01-16T08:45:48;13.88;;;7.40;;
56911;SDS011;42800;53.928;27.662;2023-01-16T08:48:32;19.15;;;8.77;;
56911;SDS011;42800;53.928;27.662;2023-01-16T08:53:47;12.98;;;7.30;;
56911;SDS011;42800;53.928;27.662;2023-01-16T08:56:13;15.48;;;9.07;;
56911;SDS011;42800;53.928;27.662;2023-01-16T08:58:40;16.95;;;7.85;;
56911;SDS011;42800;53.928;27.662;2023-01-16T09:01:06;13.13;;;7.38;;
56911;SDS011;42800;53.928;27.662;2023-01-16T09:03:32;20.73;;;6.80;;
56911;SDS011;42800;53.928;27.662;2023-01-16T09:05:59;12.90;;;6.78;;
56911;SDS011;42800;53.928;27.662;2023-01-16T09:08:26;26.98;;;5.60;;
56911;SDS011;42800;53.928;27.662;2023-01-16T09:10:52;12.80;;;6.30;;
56911;SDS011;42800;53.928;27.662;2023-01-16T09:13:36;27.00;;;8.30;;
56911;SDS011;42800;53.928;27.662;2023-01-16T09:16:15;9.27;;;6.30;;
56911;SDS011;42800;53.928;27.662;2023-01-16T09:18:41;15.90;;;6.60;;
56911;SDS011;42800;53.928;27.662;2023-01-16T09:21:07;26.27;;;7.60;;
56911;SDS011;42800;53.928;27.662;2023-01-16T09:23:34;18.90;;;8.80;;
56911;SDS011;42800;53.928;27.662;2023-01-16T09:26:01;25.98;;;7.78;;
56911;SDS011;42800;53.928;27.662;2023-01-16T09:28:27;17.88;;;8.00;;
56911;SDS011;42800;53.928;27.662;2023-01-16T09:30:53;12.60;;;7.97;;
56911;SDS011;42800;53.928;27.662;2023-01-16T09:33:19;20.38;;;9.93;;
56911;SDS011;42800;53.928;27.662;2023-01-16T09:35:45;21.35;;;8.38;;
56911;SDS011;42800;53.928;27.662;2023-01-16T09:38:12;23.13;;;8.55;;
56911;SDS011;42800;53.928;27.662;2023-01-16T09:40:39;23.02;;;8.90;;
56911;SDS011;42800;53.928;27.662;2023-01-16T09:43:16;23.48;;;9.65;;
56911;SDS011;42800;53.928;27.662;2023-01-16T09:46:09;21.52;;;9.02;;
56911;SDS011;42800;53.928;27.662;2023-01-16T09:48:39;16.20;;;8.90;;
56911;SDS011;42800;53.928;27.662;2023-01-16T09:51:12;22.48;;;9.32;;
56911;SDS011;42800;53.928;27.662;2023-01-16T09:53:43;23.23;;;10.30;;
56911;SDS011;42800;53.928;27.662;2023-01-16T09:56:33;21.10;;;9.95;;
56911;SDS011;42800;53.928;27.662;2023-01-16T09:59:23;15.65;;;8.63;;
56911;SDS011;42800;53.928;27.662;2023-01-16T10:01:59;20.92;;;10.85;;
56911;SDS011;42800;53.928;27.662;2023-01-16T10:04:33;41.00;;;9.57;;
56911;SDS011;42800;53.928;27.662;2023-01-16T10:07:15;20.52;;;9.60;;
56911;SDS011;42800;53.928;27.662;2023-01-16T10:09:54;14.77;;;9.23;;
56911;SDS011;42800;53.928;27.662;2023-01-16T10:12:30;35.47;;;10.15;;
56911;SDS011;42800;53.928;27.662;2023-01-16T10:17:53;17.50;;;9.27;;
56911;SDS011;42800;53.928;27.662;2023-01-16T10:20:36;23.38;;;9.85;;
56911;SDS011;42800;53.928;27.662;2023-01-16T10:23:12;19.33;;;10.32;;
56911;SDS011;42800;53.928;27.662;2023-01-16T10:25:49;33.08;;;11.32;;
56911;SDS011;42800;53.928;27.662;2023-01-16T10:28:28;66.18;;;10.80;;
56911;SDS011;42800;53.928;27.662;2023-01-16T10:31:04;25.60;;;10.70;;
56911;SDS011;42800;53.928;27.662;2023-01-16T10:33:38;24.70;;;9.85;;
56911;SDS011;42800;53.928;27.662;2023-01-16T10:36:12;35.08;;;12.00;;
56911;SDS011;42800;53.928;27.662;2023-01-16T10:38:42;37.75;;;11.98;;
56911;SDS011;42800;53.928;27.662;2023-01-16T10:41:14;74.55;;;10.90;;
56911;SDS011;42800;53.928;27.662;2023-01-16T10:44:02;22.88;;;10.20;;
56911;SDS011;42800;53.928;27.662;2023-01-16T10:46:49;30.23;;;9.85;;
56911;SDS011;42800;53.928;27.662;2023-01-16T10:49:34;20.88;;;9.73;;
56911;SDS011;42800;53.928;27.662;2023-01-16T10:52:01;29.27;;;10.57;;
56911;SDS011;42800;53.928;27.662;2023-01-16T10:54:29;22.48;;;9.68;;
56911;SDS011;42800;53.928;27.662;2023-01-16T10:56:55;32.40;;;9.93;;
56911;SDS011;42800;53.928;27.662;2023-01-16T10:59:27;25.50;;;8.73;;
56911;SDS011;42800;53.928;27.662;2023-01-16T11:01:54;26.50;;;11.32;;
56911;SDS011;42800;53.928;27.662;2023-01-16T11:04:32;31.38;;;9.35;;
56911;SDS011;42800;53.928;27.662;2023-01-16T11:07:07;30.87;;;9.67;;
56911;SDS011;42800;53.928;27.662;2023-01-16T11:09:39;20.90;;;9.40;;
56911;SDS011;42800;53.928;27.662;2023-01-16T11:12:08;33.78;;;10.07;;
56911;SDS011;42800;53.928;27.662;2023-01-16T11:14:56;35.20;;;10.32;;
56911;SDS011;42800;53.928;27.662;2023-01-16T11:17:40;39.53;;;8.55;;
56911;SDS011;42800;53.928;27.662;2023-01-16T11:20:44;26.58;;;8.75;;
56911;SDS011;42800;53.928;27.662;2023-01-16T11:23:14;22.23;;;9.05;;
56911;SDS011;42800;53.928;27.662;2023-01-16T11:25:43;38.53;;;9.80;;
56911;SDS011;42800;53.928;27.662;2023-01-16T11:28:12;47.90;;;9.93;;
56911;SDS011;42800;53.928;27.662;2023-01-16T11:30:43;21.38;;;9.98;;
56911;SDS011;42800;53.928;27.662;2023-01-16T11:33:12;44.45;;;11.15;;
56911;SDS011;42800;53.928;27.662;2023-01-16T11:35:41;107.30;;;14.73;;
56911;SDS011;42800;53.928;27.662;2023-01-16T11:38:14;56.38;;;14.73;;
56911;SDS011;42800;53.928;27.662;2023-01-16T11:40:43;50.55;;;15.85;;
56911;SDS011;42800;53.928;27.662;2023-01-16T11:43:12;41.10;;;14.18;;
56911;SDS011;42800;53.928;27.662;2023-01-16T11:45:59;39.08;;;14.20;;
56911;SDS011;42800;53.928;27.662;2023-01-16T11:48:37;42.28;;;13.93;;
56911;SDS011;42800;53.928;27.662;2023-01-16T11:51:05;48.03;;;13.48;;
56911;SDS011;42800;53.928;27.662;2023-01-16T11:53:36;32.22;;;12.65;;
56911;SDS011;42800;53.928;27.662;2023-01-16T11:56:08;29.98;;;12.50;;
56911;SDS011;42800;53.928;27.662;2023-01-16T12:01:18;54.63;;;13.23;;
56911;SDS011;42800;53.928;27.662;2023-01-16T12:04:03;50.55;;;14.40;;
56911;SDS011;42800;53.928;27.662;2023-01-16T12:06:43;34.45;;;11.75;;
56911;SDS011;42800;53.928;27.662;2023-01-16T12:09:36;24.40;;;12.60;;
56911;SDS011;42800;53.928;27.662;2023-01-16T12:12:18;37.88;;;12.40;;
56911;SDS011;42800;53.928;27.662;2023-01-16T12:15:13;23.13;;;10.23;;
56911;SDS011;42800;53.928;27.662;2023-01-16T12:18:00;27.33;;;12.23;;
56911;SDS011;42800;53.928;27.662;2023-01-16T12:20:38;23.80;;;12.30;;
56911;SDS011;42800;53.928;27.662;2023-01-16T12:23:22;31.67;;;12.23;;
56911;SDS011;42800;53.928;27.662;2023-01-16T12:26:15;41.58;;;12.40;;
56911;SDS011;42800;53.928;27.662;2023-01-16T12:28:50;31.50;;;12.68;;
56911;SDS011;42800;53.928;27.662;2023-01-16T12:31:31;27.85;;;11.15;;
56911;SDS011;42800;53.928;27.662;2023-01-16T12:37:17;33.40;;;9.73;;
56911;SDS011;42800;53.928;27.662;2023-01-16T12:39:55;29.80;;;10.82;;
56911;SDS011;42800;53.928;27.662;2023-01-16T12:42:34;24.13;;;10.15;;
56911;SDS011;42800;53.928;27.662;2023-01-16T12:45:28;46.30;;;10.88;;
56911;SDS011;42800;53.928;27.662;2023-01-16T12:48:08;37.22;;;12.07;;
56911;SDS011;42800;53.928;27.662;2023-01-16T12:50:51;34.03;;;11.50;;
56911;SDS011;42800;53.928;27.662;2023-01-16T12:53:36;31.48;;;11.18;;
56911;SDS011;42800;53.928;27.662;2023-01-16T12:56:24;31.48;;;10.82;;
56911;SDS011;42800;53.928;27.662;2023-01-16T12:59:01;21.95;;;9.93;;
56911;SDS011;42800;53.928;27.662;2023-01-16T13:01:34;21.00;;;9.15;;
56911;SDS011;42800;53.928;27.662;2023-01-16T13:04:06;28.13;;;10.43;;
56911;SDS011;42800;53.928;27.662;2023-01-16T13:06:40;22.55;;;9.63;;
56911;SDS011;42800;53.928;27.662;2023-01-16T13:09:14;24.80;;;11.25;;
56911;SDS011;42800;53.928;27.662;2023-01-16T13:11:51;24.27;;;9.85;;
56911;SDS011;42800;53.928;27.662;2023-01-16T13:14:41;22.73;;;11.20;;
56911;SDS011;42800;53.928;27.662;2023-01-16T13:17:14;33.03;;;14.75;;
56911;SDS011;42800;53.928;27.662;2023-01-16T13:19:43;25.00;;;9.88;;
56911;SDS011;42800;53.928;27.662;2023-01-16T13:22:16;26.35;;;9.57;;
56911;SDS011;42800;53.928;27.662;2023-01-16T13:24:49;25.52;;;10.50;;
56911;SDS011;42800;53.928;27.662;2023-01-16T13:27:21;29.08;;;13.38;;
56911;SDS011;42800;53.928;27.662;2023-01-16T13:29:59;31.08;;;10.73;;
56911;SDS011;42800;53.928;27.662;2023-01-16T13:32:31;29.87;;;11.43;;
56911;SDS011;42800;53.928;27.662;2023-01-16T13:35:01;46.60;;;19.55;;
56911;SDS011;42800;53.928;27.662;2023-01-16T13:37:34;37.92;;;12.50;;
56911;SDS011;42800;53.928;27.662;2023-01-16T13:40:32;79.70;;;21.87;;
56911;SDS011;42800;53.928;27.662;2023-01-16T13:43:08;44.50;;;16.70;;
56911;SDS011;42800;53.928;27.662;2023-01-16T13:46:00;27.90;;;10.68;;
56911;SDS011;42800;53.928;27.662;2023-01-16T13:48:28;22.63;;;10.93;;
56911;SDS011;42800;53.928;27.662;2023-01-16T13:50:58;24.25;;;10.07;;
56911;SDS011;42800;53.928;27.662;2023-01-16T13:53:26;34.92;;;11.73;;
56911;SDS011;42800;53.928;27.662;2023-01-16T13:56:05;29.50;;;10.75;;
56911;SDS011;42800;53.928;27.662;2023-01-16T13:58:36;28.02;;;11.88;;
56911;SDS011;42800;53.928;27.662;2023-01-16T14:01:04;38.88;;;11.68;;
56911;SDS011;42800;53.928;27.662;2023-01-16T14:03:32;53.25;;;10.15;;
56911;SDS011;42800;53.928;27.662;2023-01-16T14:06:16;30.70;;;11.88;;
56911;SDS011;42800;53.928;27.662;2023-01-16T14:08:46;22.45;;;10.57;;
56911;SDS011;42800;53.928;27.662;2023-01-16T14:14:27;37.28;;;10.82;;
56911;SDS011;42800;53.928;27.662;2023-01-16T14:17:17;30.10;;;8.85;;
56911;SDS011;42800;53.928;27.662;2023-01-16T14:19:52;33.35;;;11.45;;
56911;SDS011;42800;53.928;27.662;2023-01-16T14:22:21;21.65;;;9.18;;
56911;SDS011;42800;53.928;27.662;2023-01-16T14:25:16;26.58;;;10.90;;
56911;SDS011;42800;53.928;27.662;2023-01-16T14:27:48;28.58;;;12.38;;
56911;SDS011;42800;53.928;27.662;2023-01-16T14:30:17;30.52;;;13.07;;
56911;SDS011;42800;53.928;27.662;2023-01-16T14:32:47;25.50;;;10.75;;
56911;SDS011;42800;53.928;27.662;2023-01-16T14:35:18;33.00;;;13.55;;
56911;SDS011;42800;53.928;27.662;2023-01-16T14:37:53;41.17;;;11.20;;
56911;SDS011;42800;53.928;27.662;2023-01-16T14:40:23;39.03;;;10.52;;
56911;SDS011;42800;53.928;27.662;2023-01-16T14:43:08;49.03;;;13.88;;
56911;SDS011;42800;53.928;27.662;2023-01-16T14:52:47;40.95;;;9.82;;
56911;SDS011;42800;53.928;27.662;2023-01-16T14:55:43;63.90;;;12.85;;
56911;SDS011;42800;53.928;27.662;2023-01-16T14:58:13;47.50;;;9.38;;
56911;SDS011;42800;53.928;27.662;2023-01-16T15:00:47;25.45;;;9.45;;
56911;SDS011;42800;53.928;27.662;2023-01-16T15:03:19;39.28;;;10.38;;
56911;SDS011;42800;53.928;27.662;2023-01-16T15:05:49;116.80;;;15.13;;
56911;SDS011;42800;53.928;27.662;2023-01-16T15:08:19;119.72;;;17.20;;
56911;SDS011;42800;53.928;27.662;2023-01-16T15:10:50;29.08;;;9.88;;
56911;SDS011;42800;53.928;27.662;2023-01-16T15:13:20;54.53;;;11.95;;
56911;SDS011;42800;53.928;27.662;2023-01-16T15:15:48;62.90;;;12.35;;
56911;SDS011;42800;53.928;27.662;2023-01-16T15:18:17;100.22;;;18.73;;